createdAt,value
2022-08-14T14:58:16.083Z,10.98
2022-08-14T15:00:50.345Z,19.45
2022-08-14T15:03:19.616Z,24.65
2022-08-14T15:05:54.271Z,26.83
2022-08-14T15:08:26.746Z,24.33
2022-08-14T15:11:13.459Z,21.30
2022-08-14T15:13:53.010Z,19.13
2022-08-14T15:16:23.683Z,16.05
2022-08-14T15:18:54.415Z,14.20
2022-08-14T15:21:25.924Z,14.35
2022-08-14T15:23:59.669Z,14.98
2022-08-14T15:26:31.446Z,13.02
2022-08-14T15:29:08.245Z,15.23
2022-08-14T15:31:38.769Z,14.75
2022-08-14T15:34:43.216Z,13.65
2022-08-14T15:37:04.900Z,13.18
2022-08-14T15:39:38.488Z,13.20
2022-08-14T15:42:14.566Z,12.20
2022-08-14T15:44:57.985Z,12.18
2022-08-14T15:47:33.837Z,12.27
2022-08-14T15:50:09.979Z,12.40
2022-08-14T15:52:39.733Z,12.15
2022-08-14T15:55:14.826Z,11.82
2022-08-14T15:58:01.463Z,13.27
2022-08-14T16:00:49.230Z,15.05
2022-08-14T16:03:34.690Z,15.07
2022-08-14T16:06:17.714Z,17.30
2022-08-14T16:08:58.841Z,16.08
2022-08-14T16:11:50.563Z,15.70
2022-08-14T16:14:27.584Z,15.73
2022-08-14T16:17:00.623Z,14.93
2022-08-14T16:19:33.139Z,14.52
2022-08-14T16:22:58.063Z,13.77
2022-08-14T16:25:11.689Z,13.95
2022-08-14T16:27:47.797Z,13.00
2022-08-14T16:30:27.416Z,12.63
2022-08-14T16:33:01.965Z,13.00
2022-08-14T16:35:42.697Z,13.20
2022-08-14T16:38:46.062Z,14.02
2022-08-14T16:41:18.221Z,13.10
2022-08-14T16:43:59.336Z,12.15
2022-08-14T16:46:33.116Z,11.10
2022-08-14T16:49:06.891Z,11.32
2022-08-14T16:51:39.011Z,11.85
2022-08-14T16:54:21.051Z,11.32
2022-08-14T16:57:32.399Z,10.73
2022-08-14T17:00:28.143Z,10.43
2022-08-14T17:03:11.710Z,11.18
2022-08-14T17:05:47.102Z,11.13
2022-08-14T17:08:31.705Z,11.75
2022-08-14T17:11:12.413Z,12.30
2022-08-14T17:13:59.065Z,14.77
2022-08-14T17:19:13.555Z,17.45
2022-08-14T17:21:47.058Z,15.38
2022-08-14T17:24:57.086Z,15.48
2022-08-14T17:27:18.177Z,13.23
2022-08-14T17:29:56.129Z,13.57
2022-08-14T17:32:55.700Z,17.75
2022-08-14T17:35:58.016Z,18.67
2022-08-14T17:38:38.812Z,19.98
2022-08-14T17:41:36.140Z,15.02
2022-08-14T17:44:45.079Z,15.80
2022-08-14T17:47:18.488Z,15.82
2022-08-14T17:49:52.703Z,15.35
2022-08-14T17:52:34.767Z,14.50
2022-08-14T17:56:00.912Z,11.93
2022-08-14T17:58:20.323Z,10.18
2022-08-14T18:01:04.610Z,10.98
2022-08-14T18:03:50.695Z,10.65
2022-08-14T18:06:39.673Z,10.55
2022-08-14T18:09:25.405Z,10.75
2022-08-14T18:12:04.071Z,10.00
2022-08-14T18:14:48.625Z,9.85
2022-08-14T18:17:23.145Z,9.65
2022-08-14T18:19:55.343Z,9.93
2022-08-14T18:22:32.296Z,9.43
2022-08-14T18:25:19.090Z,9.07
2022-08-14T18:27:57.306Z,9.70
2022-08-14T18:30:31.972Z,10.13
2022-08-14T18:33:23.787Z,10.43
2022-08-14T18:35:59.050Z,10.70
2022-08-14T18:38:55.148Z,10.70
2022-08-14T18:41:36.353Z,11.02
2022-08-14T18:44:10.489Z,11.70
2022-08-14T18:47:32.661Z,11.88
2022-08-14T18:50:31.091Z,10.77
2022-08-14T18:53:12.535Z,11.85
2022-08-14T18:55:53.016Z,11.63
2022-08-14T18:58:31.122Z,11.85
2022-08-14T19:01:06.193Z,10.85
2022-08-14T19:03:55.734Z,11.77
2022-08-14T19:06:41.162Z,11.90
2022-08-14T19:09:42.387Z,12.02
2022-08-14T19:12:57.645Z,11.82
2022-08-14T19:15:37.743Z,11.40
2022-08-14T19:18:31.022Z,11.38
2022-08-14T19:21:32.696Z,11.57
2022-08-14T19:24:30.329Z,11.43
2022-08-14T19:30:26.117Z,10.63
2022-08-14T19:33:03.736Z,11.68
2022-08-14T19:36:00.366Z,11.57
2022-08-14T19:38:57.303Z,9.82
2022-08-14T19:41:38.910Z,10.10
2022-08-14T19:44:19.125Z,9.32
2022-08-14T19:47:00.466Z,8.35
2022-08-14T19:50:24.808Z,8.85
2022-08-14T19:52:40.016Z,8.32
2022-08-14T19:55:34.652Z,7.63
2022-08-14T19:58:09.131Z,7.13
2022-08-14T20:00:52.737Z,7.47
2022-08-14T20:03:23.360Z,8.07
2022-08-14T20:06:05.579Z,7.30
2022-08-14T20:11:01.258Z,7.25
2022-08-14T20:12:02.291Z,7.30
2022-08-14T20:14:31.725Z,7.47
2022-08-14T20:17:06.797Z,7.72
2022-08-14T20:19:41.507Z,8.05
2022-08-14T20:22:36.995Z,8.27
2022-08-14T20:25:17.764Z,7.60
2022-08-14T20:27:59.585Z,7.45
2022-08-14T20:30:34.918Z,7.88
2022-08-14T20:33:11.838Z,8.15
2022-08-14T20:35:52.563Z,8.18
2022-08-14T20:38:33.527Z,7.78
2022-08-14T20:41:12.986Z,7.97
2022-08-14T20:43:55.668Z,8.77
2022-08-14T20:46:38.744Z,8.48
2022-08-14T20:49:18.772Z,9.05
2022-08-14T20:51:59.488Z,10.23
2022-08-14T20:54:50.879Z,8.48
2022-08-14T20:57:21.628Z,8.73
2022-08-14T20:59:57.475Z,7.53
2022-08-14T21:02:50.813Z,7.47
2022-08-14T21:05:33.996Z,8.18
2022-08-14T21:08:07.846Z,8.73
2022-08-14T21:10:44.215Z,7.60
2022-08-14T21:14:08.944Z,7.65
2022-08-14T21:16:34.510Z,7.20
2022-08-14T21:19:02.026Z,7.70
2022-08-14T21:21:41.312Z,8.38
2022-08-14T21:24:38.431Z,7.68
2022-08-14T21:27:21.866Z,8.63
2022-08-14T21:29:55.803Z,8.15
2022-08-14T21:32:46.931Z,7.85
2022-08-14T21:35:23.063Z,8.60
2022-08-14T21:37:54.686Z,8.38
2022-08-14T21:40:41.697Z,8.63
2022-08-14T21:43:17.487Z,8.55
2022-08-14T21:45:54.130Z,9.30
2022-08-14T21:48:34.123Z,8.17
2022-08-14T21:51:53.209Z,8.27
2022-08-14T21:54:00.982Z,7.70
2022-08-14T21:56:41.898Z,7.35
2022-08-14T21:59:31.342Z,7.40
2022-08-14T22:02:07.507Z,7.70
2022-08-14T22:04:41.430Z,8.00
2022-08-14T22:07:18.085Z,7.97
2022-08-14T22:09:54.676Z,7.32
2022-08-14T22:12:58.719Z,7.72
2022-08-14T22:15:19.805Z,8.18
2022-08-14T22:17:54.448Z,8.18
2022-08-14T22:20:29.222Z,7.68
2022-08-14T22:23:03.266Z,8.38
2022-08-14T22:25:41.101Z,8.32
2022-08-14T22:28:19.137Z,9.50
2022-08-14T22:30:55.314Z,10.25
2022-08-14T22:33:30.837Z,10.10
2022-08-14T22:36:25.322Z,11.15
2022-08-14T22:38:56.877Z,10.13
2022-08-14T22:41:32.622Z,10.13
2022-08-14T22:44:13.275Z,10.77
2022-08-14T22:46:43.677Z,10.48
2022-08-14T22:50:31.884Z,11.25
2022-08-14T22:52:31.698Z,10.48
2022-08-14T22:55:01.690Z,11.23
2022-08-14T22:57:37.886Z,10.20
2022-08-14T23:00:25.293Z,10.32
2022-08-14T23:02:59.944Z,10.20
2022-08-14T23:05:38.816Z,11.60
2022-08-14T23:08:56.558Z,11.00
2022-08-14T23:11:03.170Z,10.40
2022-08-14T23:13:33.970Z,11.30
2022-08-14T23:16:03.898Z,11.02
2022-08-14T23:18:33.510Z,11.40
2022-08-14T23:21:02.876Z,11.30
2022-08-14T23:23:32.268Z,11.27
2022-08-14T23:26:48.352Z,11.88
2022-08-14T23:28:58.075Z,10.77
2022-08-14T23:31:35.585Z,12.50
2022-08-14T23:34:09.729Z,12.73
2022-08-14T23:36:54.342Z,11.18
2022-08-14T23:39:34.581Z,12.45
2022-08-14T23:42:17.851Z,12.82
2022-08-14T23:44:47.998Z,13.00
2022-08-14T23:47:26.681Z,14.65
2022-08-14T23:50:04.360Z,17.35
2022-08-14T23:52:50.784Z,17.92
2022-08-14T23:55:35.499Z,16.85
2022-08-14T23:58:29.786Z,17.10
